Time;durP1;ratioP1;P1;durP2;ratioP2;P2;SDS_P1;SDS_P2;PMS_P1;PMS_P2;Temp;Humidity;BMP_temperature;BMP_pressure;BME280_temperature;BME280_humidity;BME280_pressure;Samples;Min_cycle;Max_cycle;Signal;HPM_P1;HPM_P2
2022/09/22 00:01:19;;;;;;;1.85;1.27;;;;;;;21.26;45.62;99306.38;4934726;29;20039;-68
2022/09/22 00:03:48;;;;;;;1.83;1.45;;;;;;;21.23;45.72;99304.94;4931161;29;20418;-65
2022/09/22 00:06:15;;;;;;;2.90;1.65;;;;;;;21.18;45.74;99302.78;4934837;29;20059;-65
2022/09/22 00:08:43;;;;;;;2.50;1.60;;;;;;;21.17;45.75;99313.75;4934579;29;20042;-66
2022/09/22 00:11:12;;;;;;;1.40;1.17;;;;;;;21.16;45.77;99312.09;4934245;29;20043;-67
2022/09/22 00:13:39;;;;;;;2.60;1.95;;;;;;;21.14;45.64;99311.47;4932322;29;20507;-64
2022/09/22 00:16:08;;;;;;;1.77;1.50;;;;;;;21.15;45.71;99321.19;4933932;29;20502;-65
2022/09/22 00:18:37;;;;;;;5.38;2.00;;;;;;;21.16;45.84;99326.41;4934226;29;20047;-65
2022/09/22 00:21:11;;;;;;;3.63;1.65;;;;;;;21.16;45.31;99323.72;4933595;29;20065;-65
2022/09/22 00:23:37;;;;;;;2.25;1.63;;;;;;;21.16;45.83;99325.56;4925894;29;20610;-65
2022/09/22 00:26:05;;;;;;;2.67;1.70;;;;;;;21.15;45.75;99326.56;4935238;29;20046;-64
2022/09/22 00:28:31;;;;;;;1.80;1.25;;;;;;;21.13;45.58;99326.78;4934345;29;20038;-64
2022/09/22 00:30:57;;;;;;;3.20;2.10;;;;;;;21.11;45.60;99319.91;4933446;29;20388;-66
2022/09/22 00:33:23;;;;;;;2.40;1.60;;;;;;;21.11;45.60;99330.69;4917817;29;20043;-66
2022/09/22 00:35:59;;;;;;;3.58;1.48;;;;;;;21.11;45.75;99326.16;4935171;29;20063;-67
2022/09/22 00:38:25;;;;;;;3.75;1.95;;;;;;;21.10;45.68;99323.66;4933957;29;20039;-63
2022/09/22 00:40:50;;;;;;;4.00;1.77;;;;;;;21.08;45.70;99320.34;4915980;29;20040;-63
2022/09/22 00:43:24;;;;;;;3.15;1.70;;;;;;;21.08;45.50;99331.09;4933825;29;20067;-63
2022/09/22 00:46:21;;;;;;;1.92;1.50;;;;;;;21.06;45.68;99323.19;4933548;29;20075;-62
2022/09/22 00:49:06;;;;;;;5.10;1.83;;;;;;;21.06;45.70;99323.19;4920274;28;20051;-64
2022/09/22 00:51:45;;;;;;;2.03;1.60;;;;;;;21.06;45.78;99314.31;4933859;29;20106;-64
2022/09/22 00:54:14;;;;;;;3.20;1.50;;;;;;;21.07;45.80;99308.72;4934306;29;20055;-65
2022/09/22 00:56:49;;;;;;;2.67;1.85;;;;;;;21.08;45.89;99310.38;4934379;29;20146;-63
2022/09/22 00:59:19;;;;;;;4.00;1.80;;;;;;;21.08;45.64;99304.19;4933669;29;20035;-63
2022/09/22 01:01:44;;;;;;;3.60;2.60;;;;;;;21.08;45.75;99304.19;4917441;29;20043;-66
2022/09/22 01:04:11;;;;;;;2.95;2.00;;;;;;;21.11;45.92;99309.16;4933510;29;20048;-62
2022/09/22 01:06:38;;;;;;;4.50;1.77;;;;;;;21.11;45.90;99318.06;4933502;29;20098;-62
2022/09/22 01:09:05;;;;;;;3.30;2.30;;;;;;;21.10;45.65;99315.59;4933307;29;20454;-64
2022/09/22 01:11:32;;;;;;;3.85;1.90;;;;;;;21.09;45.82;99316.63;4932688;29;20472;-64
2022/09/22 01:14:35;;;;;;;4.10;1.98;;;;;;;21.11;45.72;99310.00;4933714;29;20122;-64
2022/09/22 01:17:35;;;;;;;3.22;1.90;;;;;;;21.12;45.66;99318.88;4927988;29;20411;-64
2022/09/22 01:20:33;;;;;;;3.13;1.77;;;;;;;21.08;45.63;99315.78;4911055;29;20052;-63
2022/09/22 01:23:24;;;;;;;2.70;1.52;;;;;;;21.08;45.69;99310.38;4931028;29;20138;-63
2022/09/22 01:25:49;;;;;;;2.38;1.90;;;;;;;21.08;45.82;99321.16;4937318;29;20047;-64
2022/09/22 01:28:41;;;;;;;2.65;1.80;;;;;;;21.09;45.82;99322.81;4937941;29;20028;-62
2022/09/22 01:31:18;;;;;;;2.15;1.77;;;;;;;21.10;45.74;99324.47;4937479;29;20036;-63
2022/09/22 01:33:55;;;;;;;4.32;1.92;;;;;;;21.11;45.84;99315.38;4925897;29;20043;-62
2022/09/22 01:36:26;;;;;;;4.53;2.40;;;;;;;21.11;45.79;99320.75;4936865;29;20487;-64
2022/09/22 01:39:10;;;;;;;2.22;1.83;;;;;;;21.10;45.61;99312.91;4937399;29;20035;-64
2022/09/22 01:41:36;;;;;;;2.67;2.10;;;;;;;21.09;45.57;99316.63;4925857;29;20058;-63
2022/09/22 01:44:08;;;;;;;4.18;2.20;;;;;;;21.07;45.73;99306.03;4937570;29;20114;-64
2022/09/22 01:46:38;;;;;;;3.83;1.98;;;;;;;21.08;45.63;99309.56;4931225;29;20039;-65
2022/09/22 01:49:07;;;;;;;6.90;2.45;;;;;;;21.07;45.71;99307.91;4938280;29;20399;-64
2022/09/22 01:51:50;;;;;;;4.82;2.65;;;;;;;21.02;45.59;99303.94;4937813;29;20035;-64
2022/09/22 01:54:39;;;;;;;3.63;2.55;;;;;;;20.98;45.55;99304.53;4936654;29;20064;-63
2022/09/22 01:57:16;;;;;;;4.00;2.47;;;;;;;20.94;45.68;99305.94;4937334;29;20031;-63
2022/09/22 01:59:46;;;;;;;3.88;2.33;;;;;;;20.91;45.74;99303.63;4937668;29;20502;-63
2022/09/22 02:02:22;;;;;;;3.47;2.70;;;;;;;20.91;45.80;99304.47;4937752;29;20507;-65
2022/09/22 02:04:53;;;;;;;3.25;2.08;;;;;;;20.87;45.73;99305.88;4937216;29;20419;-64
2022/09/22 02:07:32;;;;;;;3.17;2.30;;;;;;;20.86;45.76;99306.91;4937468;29;20062;-65
2022/09/22 02:10:01;;;;;;;3.05;2.65;;;;;;;20.85;45.88;99316.00;4936950;29;20467;-63
2022/09/22 02:12:28;;;;;;;5.47;3.13;;;;;;;20.85;45.75;99310.59;4937073;29;20039;-64
2022/09/22 02:14:53;;;;;;;3.80;2.67;;;;;;;20.84;45.87;99317.00;4936927;29;20036;-65
2022/09/22 02:17:19;;;;;;;3.92;2.20;;;;;;;20.85;45.69;99324.06;4937199;29;20050;-64
2022/09/22 02:19:45;;;;;;;4.00;2.63;;;;;;;20.82;45.84;99311.84;4937015;29;20039;-64
2022/09/22 02:22:12;;;;;;;4.03;2.60;;;;;;;20.80;45.72;99313.06;4937093;29;20506;-64
2022/09/22 02:24:40;;;;;;;3.55;2.50;;;;;;;20.78;45.94;99320.50;4936512;29;20035;-64
2022/09/22 02:27:12;;;;;;;3.33;2.55;;;;;;;20.77;45.90;99322.34;4936825;29;20043;-64
2022/09/22 02:29:43;;;;;;;3.58;2.35;;;;;;;20.74;45.90;99320.84;4937205;29;20063;-64
2022/09/22 02:32:14;;;;;;;3.53;2.70;;;;;;;20.77;45.93;99324.19;4936764;29;20054;-65
2022/09/22 02:34:40;;;;;;;4.03;2.95;;;;;;;20.76;45.81;99311.78;4936345;29;20031;-66
2022/09/22 02:37:26;;;;;;;3.65;2.83;;;;;;;20.74;45.85;99318.16;4936160;29;20526;-63
2022/09/22 02:40:19;;;;;;;3.30;2.92;;;;;;;20.70;45.98;99313.34;4937229;29;20435;-65
2022/09/22 02:42:59;;;;;;;4.05;2.80;;;;;;;20.68;46.16;99310.03;4936060;29;20047;-65
2022/09/22 02:45:35;;;;;;;3.67;2.75;;;;;;;20.71;45.81;99313.16;4936188;29;20204;-65
2022/09/22 02:48:11;;;;;;;4.85;3.10;;;;;;;20.72;45.91;99312.13;4936284;29;20035;-65
2022/09/22 02:50:37;;;;;;;5.35;3.42;;;;;;;20.68;46.02;99315.41;4936717;29;20131;-65
2022/09/22 02:53:12;;;;;;;3.75;2.90;;;;;;;20.66;45.97;99304.81;4936526;29;20606;-65
2022/09/22 02:55:39;;;;;;;3.22;2.55;;;;;;;20.64;46.06;99303.38;4936504;29;20039;-64
2022/09/22 02:58:04;;;;;;;3.65;2.40;;;;;;;20.66;46.21;99309.38;4936335;29;20066;-64
2022/09/22 03:00:31;;;;;;;4.93;3.45;;;;;;;20.65;46.08;99305.88;4936571;29;20031;-64
2022/09/22 03:02:57;;;;;;;3.38;3.08;;;;;;;20.63;46.16;99312.44;4936200;29;20495;-65
2022/09/22 03:05:22;;;;;;;4.25;2.95;;;;;;;20.64;46.41;99314.97;4935974;29;20046;-65
2022/09/22 03:07:48;;;;;;;4.07;3.20;;;;;;;20.65;46.37;99318.47;4936110;29;20095;-65
2022/09/22 03:10:14;;;;;;;4.43;3.25;;;;;;;20.61;46.23;99315.34;4936131;29;20063;-64
2022/09/22 03:12:41;;;;;;;5.90;3.45;;;;;;;20.62;46.29;99317.00;4935943;29;20043;-64
2022/09/22 03:15:11;;;;;;;4.60;3.42;;;;;;;20.62;46.30;99333.13;4935463;29;20036;-65
2022/09/22 03:17:38;;;;;;;4.97;3.55;;;;;;;20.58;46.33;99337.22;4935485;29;20407;-64
2022/09/22 03:20:05;;;;;;;4.10;3.70;;;;;;;20.56;46.36;99339.25;4935850;29;20039;-63
2022/09/22 03:22:31;;;;;;;6.10;3.70;;;;;;;20.55;46.32;99337.59;4935831;29;20074;-65
2022/09/22 03:24:56;;;;;;;5.03;3.75;;;;;;;20.52;46.34;99335.28;4935797;29;20053;-64
2022/09/22 03:27:22;;;;;;;4.05;3.38;;;;;;;20.52;46.79;99338.81;4935350;29;20122;-64
2022/09/22 03:29:47;;;;;;;4.65;3.70;;;;;;;20.53;46.55;99345.00;4936175;29;20039;-64
2022/09/22 03:32:13;;;;;;;5.43;3.75;;;;;;;20.51;46.26;99333.66;4919198;29;20040;-64
2022/09/22 03:34:38;;;;;;;6.45;4.18;;;;;;;20.48;46.51;99337.53;4921007;29;20043;-64
2022/09/22 03:37:04;;;;;;;5.82;3.53;;;;;;;20.46;46.62;99344.13;4935268;29;20036;-64
2022/09/22 03:39:29;;;;;;;4.65;3.67;;;;;;;20.44;46.50;99338.91;4935480;29;20391;-64
2022/09/22 03:41:55;;;;;;;6.43;4.18;;;;;;;20.40;46.58;99345.72;4935526;29;20054;-65
2022/09/22 03:44:20;;;;;;;6.47;3.70;;;;;;;20.39;46.59;99347.56;4935814;29;20042;-65
2022/09/22 03:46:46;;;;;;;9.00;3.80;;;;;;;20.39;46.59;99339.50;4934803;29;20440;-64
2022/09/22 03:49:11;;;;;;;5.65;3.55;;;;;;;20.39;46.52;99346.75;4934831;29;20035;-64
2022/09/22 03:51:37;;;;;;;3.70;3.17;;;;;;;20.40;46.56;99348.41;4935876;29;20031;-65
2022/09/22 03:54:03;;;;;;;4.85;3.72;;;;;;;20.41;46.69;99348.22;4935274;29;20078;-64
2022/09/22 03:56:28;;;;;;;4.18;3.38;;;;;;;20.41;46.62;99337.47;4935455;29;20038;-64
2022/09/22 03:58:54;;;;;;;4.82;3.83;;;;;;;20.41;46.79;99345.53;4934579;29;20127;-65
2022/09/22 04:01:19;;;;;;;4.53;3.88;;;;;;;20.42;46.42;99339.13;4934680;29;20086;-64
2022/09/22 04:03:45;;;;;;;6.28;3.65;;;;;;;20.39;46.58;99334.13;4934611;29;20079;-64
2022/09/22 04:06:11;;;;;;;4.13;3.17;;;;;;;20.37;46.50;99329.97;4916171;29;20040;-64
2022/09/22 04:08:36;;;;;;;4.88;3.72;;;;;;;20.36;46.44;99339.91;4916447;29;20088;-64
2022/09/22 04:11:03;;;;;;;3.88;3.47;;;;;;;20.35;46.69;99340.06;4916411;29;20484;-65
2022/09/22 04:13:28;;;;;;;4.20;3.20;;;;;;;20.34;46.71;99336.56;4920731;29;20055;-64
2022/09/22 04:15:54;;;;;;;3.92;3.17;;;;;;;20.31;46.63;99334.25;4935463;29;20458;-64
2022/09/22 04:18:20;;;;;;;4.55;3.63;;;;;;;20.31;46.68;99331.56;4935549;29;20387;-65
2022/09/22 04:20:45;;;;;;;5.10;3.72;;;;;;;20.31;46.84;99336.94;4935040;29;20074;-65
2022/09/22 04:23:12;;;;;;;5.10;3.28;;;;;;;20.33;46.77;99334.06;4935373;29;20071;-65
2022/09/22 04:25:38;;;;;;;4.72;3.35;;;;;;;20.33;46.46;99340.28;4934428;29;20445;-66
2022/09/22 04:28:04;;;;;;;4.15;3.25;;;;;;;20.30;46.42;99340.66;4935407;29;20069;-65
2022/09/22 04:30:30;;;;;;;3.75;2.72;;;;;;;20.28;46.95;99342.69;4935158;29;20054;-65
2022/09/22 04:32:55;;;;;;;5.03;3.80;;;;;;;20.28;46.87;99342.69;4934714;29;20032;-66
2022/09/22 04:35:21;;;;;;;4.40;3.72;;;;;;;20.28;46.99;99340.84;4935355;29;20506;-65
2022/09/22 04:37:46;;;;;;;3.33;2.95;;;;;;;20.30;47.04;99332.59;4935142;29;20483;-64
2022/09/22 04:40:12;;;;;;;3.90;2.88;;;;;;;20.33;46.86;99339.41;4934847;29;20399;-65
2022/09/22 04:42:37;;;;;;;3.60;3.30;;;;;;;20.33;46.97;99334.91;4934808;29;20099;-64
2022/09/22 04:45:05;;;;;;;3.42;3.05;;;;;;;20.35;47.02;99342.75;4934363;29;20497;-66
2022/09/22 04:47:32;;;;;;;5.50;3.85;;;;;;;20.37;47.18;99341.53;4935095;29;20344;-66
2022/09/22 04:49:58;;;;;;;3.53;3.05;;;;;;;20.39;47.03;99331.44;4935211;29;20116;-66
2022/09/22 04:52:24;;;;;;;4.25;2.85;;;;;;;20.39;46.93;99347.56;4934840;29;20031;-66
2022/09/22 04:54:50;;;;;;;3.95;3.55;;;;;;;20.41;46.82;99342.84;4934447;29;20395;-65
2022/09/22 04:57:15;;;;;;;3.58;3.10;;;;;;;20.39;46.92;99347.56;4935143;29;20042;-64
2022/09/22 04:59:40;;;;;;;3.97;3.15;;;;;;;20.37;46.81;99338.03;4937521;29;20027;-65
2022/09/22 05:02:06;;;;;;;4.35;3.70;;;;;;;20.34;46.93;99341.94;4938717;29;20114;-65
2022/09/22 05:04:31;;;;;;;3.70;3.13;;;;;;;20.33;46.93;99340.28;4938220;29;20122;-65
2022/09/22 05:06:57;;;;;;;4.05;3.22;;;;;;;20.34;47.04;99327.66;4938870;29;20058;-64
2022/09/22 05:09:22;;;;;;;5.80;3.90;;;;;;;20.34;46.89;99350.00;4938369;29;20028;-65
2022/09/22 05:11:48;;;;;;;5.45;3.25;;;;;;;20.35;46.82;99345.44;4938519;29;20023;-66
2022/09/22 05:14:16;;;;;;;3.67;3.28;;;;;;;20.37;46.95;99346.91;4938381;29;20058;-64
2022/09/22 05:16:42;;;;;;;6.22;3.50;;;;;;;20.38;47.00;99342.38;4938460;29;20428;-65
2022/09/22 05:19:08;;;;;;;6.45;3.38;;;;;;;20.39;46.76;99333.31;4938275;29;20027;-66
2022/09/22 05:21:35;;;;;;;5.07;3.22;;;;;;;20.39;46.87;99344.88;4938309;29;20380;-64
2022/09/22 05:24:02;;;;;;;5.30;3.40;;;;;;;20.41;46.85;99340.16;4937905;29;20047;-65
2022/09/22 05:26:28;;;;;;;4.57;3.17;;;;;;;20.42;46.89;99338.31;4938252;29;20032;-65
2022/09/22 05:28:55;;;;;;;4.40;3.00;;;;;;;20.45;46.85;99342.47;4936362;29;20038;-64
2022/09/22 05:31:20;;;;;;;3.88;3.45;;;;;;;20.45;46.62;99337.09;4935422;29;20063;-65
2022/09/22 05:33:46;;;;;;;6.55;3.35;;;;;;;20.47;46.54;99341.22;4936597;29;20483;-65
2022/09/22 05:36:11;;;;;;;4.43;3.53;;;;;;;20.46;46.69;99325.31;4937864;29;20487;-64
2022/09/22 05:38:37;;;;;;;3.88;3.47;;;;;;;20.44;46.55;99330.84;4937915;29;20031;-65
2022/09/22 05:41:02;;;;;;;5.70;3.95;;;;;;;20.43;46.75;99330.03;4937977;29;20047;-65
2022/09/22 05:43:28;;;;;;;6.55;4.65;;;;;;;20.43;46.61;99330.03;4937179;29;20067;-65
2022/09/22 05:45:54;;;;;;;5.18;3.78;;;;;;;20.45;46.66;99331.72;4937871;29;20040;-65
2022/09/22 05:48:20;;;;;;;5.72;4.05;;;;;;;20.45;46.49;99329.03;4937493;29;20036;-64
2022/09/22 05:50:45;;;;;;;5.07;3.28;;;;;;;20.47;46.54;99327.78;4937803;29;20040;-65
2022/09/22 05:53:12;;;;;;;3.97;3.58;;;;;;;20.51;46.36;99333.66;4937613;29;20051;-64
2022/09/22 05:55:39;;;;;;;5.45;4.68;;;;;;;20.50;46.40;99334.66;4937876;29;20046;-65
2022/09/22 05:58:05;;;;;;;5.43;4.28;;;;;;;20.48;46.50;99332.16;4937564;29;20499;-65
2022/09/22 06:00:31;;;;;;;6.00;4.47;;;;;;;20.48;46.49;99336.72;4937944;29;20135;-65
2022/09/22 06:02:57;;;;;;;6.93;4.78;;;;;;;20.45;46.53;99337.91;4936703;29;20083;-65
2022/09/22 06:05:22;;;;;;;6.55;4.53;;;;;;;20.45;46.73;99331.72;4937660;29;20086;-65
2022/09/22 06:07:59;;;;;;;5.40;4.40;;;;;;;20.43;46.70;99331.91;4937608;29;20034;-65
2022/09/22 06:10:25;;;;;;;6.70;4.47;;;;;;;20.40;46.87;99325.03;4936665;29;20050;-64
2022/09/22 06:12:51;;;;;;;8.70;5.20;;;;;;;20.41;46.66;99339.31;4936651;29;20028;-64
2022/09/22 06:15:16;;;;;;;10.48;5.00;;;;;;;20.39;46.81;99334.13;4919933;29;20071;-64
2022/09/22 06:17:41;;;;;;;7.13;4.97;;;;;;;20.39;46.97;99333.31;4936435;29;20031;-65
2022/09/22 06:20:07;;;;;;;14.65;5.97;;;;;;;20.39;47.00;99336.00;4936833;29;20079;-65
2022/09/22 06:22:36;;;;;;;7.80;5.15;;;;;;;20.39;46.92;99347.56;4936997;29;20040;-65
2022/09/22 06:25:02;;;;;;;6.03;4.93;;;;;;;20.41;46.79;99331.25;4937313;29;20054;-64
2022/09/22 06:27:27;;;;;;;6.82;5.60;;;;;;;20.41;46.94;99347.38;4937242;29;20043;-65
2022/09/22 06:29:53;;;;;;;8.10;5.35;;;;;;;20.40;46.88;99335.78;4936359;29;20091;-64
2022/09/22 06:32:18;;;;;;;5.35;4.82;;;;;;;20.39;46.66;99344.06;4919342;29;20046;-65
2022/09/22 06:34:44;;;;;;;10.55;5.03;;;;;;;20.37;46.67;99332.66;4934856;29;20032;-65
2022/09/22 06:37:10;;;;;;;5.90;4.90;;;;;;;20.34;46.86;99341.94;4936867;29;20051;-64
2022/09/22 06:39:39;;;;;;;7.82;4.85;;;;;;;20.35;47.10;99337.38;4936567;29;20039;-65
2022/09/22 06:42:05;;;;;;;7.57;5.28;;;;;;;20.40;47.19;99346.53;4936684;29;20047;-63
2022/09/22 06:44:31;;;;;;;7.35;4.40;;;;;;;20.42;46.94;99341.00;4936723;29;20036;-65
2022/09/22 06:46:56;;;;;;;6.38;4.82;;;;;;;20.45;46.99;99332.53;4936284;29;20186;-65
2022/09/22 06:49:22;;;;;;;7.68;5.32;;;;;;;20.46;46.84;99336.06;4936305;29;20039;-64
2022/09/22 06:51:48;;;;;;;5.43;4.80;;;;;;;20.45;46.86;99342.47;4936027;29;20039;-64
2022/09/22 06:54:14;;;;;;;7.07;5.47;;;;;;;20.47;46.76;99343.09;4936535;29;20491;-65
2022/09/22 06:56:41;;;;;;;7.20;5.65;;;;;;;20.49;46.80;99343.75;4937077;29;20036;-64
2022/09/22 06:59:11;;;;;;;7.03;5.45;;;;;;;20.49;46.76;99344.56;4935989;29;20035;-65
2022/09/22 07:01:38;;;;;;;8.63;5.97;;;;;;;20.51;46.53;99344.41;4936063;29;20067;-65
2022/09/22 07:04:04;;;;;;;7.57;5.55;;;;;;;20.55;46.38;99349.19;4936167;29;20134;-64
2022/09/22 07:06:29;;;;;;;10.50;6.40;;;;;;;20.59;46.22;99344.25;4936000;29;20496;-64
2022/09/22 07:08:54;;;;;;;9.32;6.22;;;;;;;20.62;46.26;99343.03;4935456;29;20091;-64
2022/09/22 07:11:22;;;;;;;6.72;5.38;;;;;;;20.65;46.19;99350.72;4936170;29;20035;-64
2022/09/22 07:13:49;;;;;;;7.93;5.63;;;;;;;20.67;46.27;99349.50;4935843;29;20038;-65
2022/09/22 07:16:16;;;;;;;7.95;5.78;;;;;;;20.72;46.07;99340.88;4935728;29;20115;-64
2022/09/22 07:18:50;;;;;;;7.18;6.22;;;;;;;20.75;46.01;99348.56;4936075;29;20038;-64
2022/09/22 07:21:21;;;;;;;9.55;7.35;;;;;;;20.78;45.90;99342.00;4936283;29;20044;-64
2022/09/22 07:23:48;;;;;;;7.30;6.55;;;;;;;20.79;46.01;99340.97;4935380;29;20110;-64
2022/09/22 07:26:17;;;;;;;10.88;7.13;;;;;;;20.81;46.01;99352.34;4935728;29;20110;-64
2022/09/22 07:28:43;;;;;;;10.07;6.78;;;;;;;20.81;45.91;99353.19;4936308;29;20039;-63
2022/09/22 07:31:12;;;;;;;7.82;6.75;;;;;;;20.80;45.89;99348.03;4935614;29;20031;-65
2022/09/22 07:33:41;;;;;;;10.20;6.47;;;;;;;20.76;45.80;99350.25;4935519;29;20035;-64
2022/09/22 07:36:09;;;;;;;7.80;6.05;;;;;;;20.76;45.94;99350.25;4935822;29;20380;-65
2022/09/22 07:38:39;;;;;;;9.68;6.22;;;;;;;20.78;46.00;99358.13;4934974;29;20039;-65
2022/09/22 07:41:08;;;;;;;7.82;5.70;;;;;;;20.79;46.04;99354.44;4935790;29;20047;-65
2022/09/22 07:43:34;;;;;;;9.23;5.68;;;;;;;20.81;45.79;99368.47;4936296;29;20062;-64
2022/09/22 07:46:00;;;;;;;7.22;5.35;;;;;;;20.82;45.71;99367.47;4936393;29;20062;-65
2022/09/22 07:48:36;;;;;;;7.47;5.53;;;;;;;20.81;45.84;99366.63;4935268;29;20043;-66
2022/09/22 07:51:07;;;;;;;6.93;5.40;;;;;;;20.80;45.84;99372.22;4935477;29;20557;-65
2022/09/22 07:53:34;;;;;;;8.02;5.40;;;;;;;20.78;45.77;99367.03;4935662;29;20042;-65
2022/09/22 07:56:11;;;;;;;5.85;4.63;;;;;;;20.78;45.86;99375.09;4935325;29;20043;-65
2022/09/22 07:58:40;;;;;;;7.18;4.80;;;;;;;20.78;45.93;99369.72;4934871;29;20086;-66
2022/09/22 08:01:07;;;;;;;6.90;5.10;;;;;;;20.78;45.79;99377.78;4935571;29;20048;-66
2022/09/22 08:03:34;;;;;;;7.72;6.28;;;;;;;20.76;45.73;99371.75;4935187;29;20055;-65
2022/09/22 08:06:09;;;;;;;8.23;5.85;;;;;;;20.76;45.84;99377.13;4935257;29;20055;-65
2022/09/22 08:08:45;;;;;;;8.40;5.78;;;;;;;20.73;45.75;99364.88;4934817;29;20035;-65
2022/09/22 08:11:14;;;;;;;7.32;4.30;;;;;;;20.77;45.91;99365.34;4935225;29;20439;-64
2022/09/22 08:13:42;;;;;;;6.18;4.80;;;;;;;20.81;45.85;99363.09;4934492;29;20604;-65
2022/09/22 08:16:09;;;;;;;7.28;4.93;;;;;;;20.85;46.08;99359.00;4934939;29;20039;-64
2022/09/22 08:18:35;;;;;;;10.35;6.45;;;;;;;20.86;45.46;99361.53;4934472;29;20167;-65
2022/09/22 08:21:01;;;;;;;10.88;6.57;;;;;;;20.85;45.57;99364.38;4935559;29;20082;-64
2022/09/22 08:23:30;;;;;;;8.73;6.20;;;;;;;20.85;45.53;99359.00;4935169;29;20055;-64
2022/09/22 08:26:04;;;;;;;7.57;6.20;;;;;;;20.82;45.65;99365.63;4935005;29;20032;-65
2022/09/22 08:28:30;;;;;;;9.32;7.30;;;;;;;20.79;45.94;99374.06;4934669;29;20043;-65
2022/09/22 08:30:56;;;;;;;12.57;6.78;;;;;;;20.77;45.91;99368.03;4927989;29;20415;-64
2022/09/22 08:33:21;;;;;;;7.63;6.78;;;;;;;20.79;45.99;99365.19;4920334;29;20497;-63
2022/09/22 08:36:02;;;;;;;11.82;7.38;;;;;;;20.76;46.08;99369.06;4938798;29;20039;-65
2022/09/22 08:38:29;;;;;;;8.40;7.55;;;;;;;20.71;46.01;99369.63;4938199;29;20039;-65
2022/09/22 08:40:58;;;;;;;8.85;6.43;;;;;;;20.72;46.16;99373.16;4938512;29;20048;-65
2022/09/22 08:43:24;;;;;;;9.25;6.93;;;;;;;20.72;46.17;99368.59;4938252;29;20533;-65
2022/09/22 08:45:51;;;;;;;7.78;6.30;;;;;;;20.73;46.21;99377.50;4938772;29;20541;-66
2022/09/22 08:54:01;;;;;;;9.80;6.65;;;;;;;20.71;46.33;99377.69;4938739;29;20129;-65
2022/09/22 08:56:43;;;;;;;8.23;6.22;;;;;;;20.72;46.30;99382.03;4938461;29;20122;-65
2022/09/22 08:59:21;;;;;;;10.13;6.82;;;;;;;20.70;46.16;99384.06;4932713;29;20036;-65
2022/09/22 09:01:59;;;;;;;9.68;6.72;;;;;;;20.67;46.14;99389.00;4938628;29;20052;-65
2022/09/22 09:04:46;;;;;;;11.55;7.05;;;;;;;20.66;46.17;99393.53;4919284;29;20408;-65
2022/09/22 09:07:21;;;;;;;8.38;5.57;;;;;;;20.68;46.15;99390.69;4933220;29;20048;-65
2022/09/22 09:10:17;;;;;;;13.25;6.55;;;;;;;20.73;46.19;99390.94;4938693;29;20042;-67
2022/09/22 09:13:13;;;;;;;9.32;5.45;;;;;;;20.78;46.01;99387.72;4937805;29;20034;-66
2022/09/22 09:15:47;;;;;;;9.45;5.80;;;;;;;20.82;45.69;99392.50;4938007;29;20395;-65
2022/09/22 09:18:22;;;;;;;5.45;4.68;;;;;;;20.91;45.38;99395.06;4938026;29;20040;-64
2022/09/22 09:20:51;;;;;;;7.13;4.93;;;;;;;20.93;45.55;99391.16;4937494;29;20407;-65
2022/09/22 09:23:33;;;;;;;8.50;5.68;;;;;;;20.98;45.48;99385.22;4936736;29;20046;-65
2022/09/22 09:26:01;;;;;;;6.00;4.70;;;;;;;21.01;45.25;99382.13;4937543;29;20521;-63
2022/09/22 09:28:41;;;;;;;7.32;5.63;;;;;;;21.06;45.11;99379.69;4938053;29;20403;-64
2022/09/22 09:31:26;;;;;;;8.38;5.35;;;;;;;21.11;45.12;99388.03;4930585;29;20071;-65
2022/09/22 09:34:13;;;;;;;6.53;5.18;;;;;;;21.17;45.17;99383.72;4931408;29;20090;-64
2022/09/22 09:36:43;;;;;;;7.38;5.28;;;;;;;21.21;45.06;99384.16;4938124;29;20122;-64
2022/09/22 09:39:26;;;;;;;8.30;5.15;;;;;;;21.21;45.07;99382.31;4937210;29;20036;-64
2022/09/22 09:41:54;;;;;;;5.55;4.65;;;;;;;21.23;45.19;99382.09;4937729;29;20048;-63
2022/09/22 09:44:29;;;;;;;8.20;5.68;;;;;;;21.24;45.00;99381.09;4937180;29;20062;-64
2022/09/22 09:47:03;;;;;;;6.15;5.38;;;;;;;21.24;45.05;99373.84;4919874;29;20122;-64
2022/09/22 09:49:29;;;;;;;11.57;5.93;;;;;;;21.22;44.96;99372.38;4937314;29;20043;-64
2022/09/22 09:51:59;;;;;;;8.35;6.35;;;;;;;21.23;45.06;99374.88;4938221;29;20040;-64
2022/09/22 10:41:41;;;;;;;7.80;5.85;;;;;;;21.24;45.25;99371.16;3672370;29;20118;-63
2022/09/22 10:44:19;;;;;;;11.55;5.85;;;;;;;21.33;45.04;99366.44;4933988;28;20035;-64
2022/09/22 10:46:56;;;;;;;10.45;6.72;;;;;;;21.40;44.95;99366.50;4936906;29;20103;-65
2022/09/22 10:49:35;;;;;;;8.43;6.43;;;;;;;21.45;44.82;99366.75;4936440;29;20061;-66
2022/09/22 10:52:08;;;;;;;7.75;5.82;;;;;;;21.49;44.74;99362.66;4936739;29;20028;-68
2022/09/22 10:54:40;;;;;;;16.25;6.53;;;;;;;21.50;44.76;99362.44;4935699;29;20384;-66
2022/09/22 10:57:22;;;;;;;7.85;6.10;;;;;;;21.52;44.59;99361.41;4936086;29;20813;-66
2022/09/22 11:00:23;;;;;;;10.70;6.32;;;;;;;21.51;44.65;99363.28;4938368;29;20035;-66
2022/09/22 11:03:07;;;;;;;8.43;5.82;;;;;;;21.51;44.40;99357.91;4932129;29;20126;-64
2022/09/22 11:15:07;;;;;;;5.40;4.80;;;;;;;21.49;44.35;99341.13;4931641;29;20137;-65
2022/09/22 11:17:41;;;;;;;7.38;6.63;;;;;;;21.54;44.10;99341.38;4936274;29;20047;-65
2022/09/22 11:20:21;;;;;;;10.85;6.03;;;;;;;21.54;44.03;99344.06;4934178;29;20039;-65
2022/09/22 11:22:59;;;;;;;10.33;5.97;;;;;;;21.56;44.03;99347.34;4916908;29;20044;-65
2022/09/22 11:26:00;;;;;;;6.70;5.55;;;;;;;21.59;44.10;99344.28;4917009;29;20126;-65
2022/09/22 11:29:06;;;;;;;7.85;6.22;;;;;;;21.61;44.14;99342.25;4929008;29;20046;-65
2022/09/22 11:31:53;;;;;;;7.68;5.20;;;;;;;21.67;44.12;99345.19;4876685;29;20595;-65
2022/09/22 11:34:55;;;;;;;7.88;5.00;;;;;;;21.72;44.38;99348.09;4858750;29;20045;-66
2022/09/22 11:37:42;;;;;;;5.72;4.82;;;;;;;21.78;44.30;99340.06;4910599;29;20079;-65
2022/09/22 11:40:32;;;;;;;5.80;4.50;;;;;;;21.82;44.26;99343.22;4935146;29;20157;-65
2022/09/22 11:43:16;;;;;;;6.22;4.43;;;;;;;21.85;44.15;99348.16;4915369;29;20051;-65
2022/09/22 11:45:47;;;;;;;7.70;4.35;;;;;;;21.88;44.04;99347.78;4916589;29;20048;-66
2022/09/22 11:48:13;;;;;;;5.95;4.85;;;;;;;21.89;43.90;99340.53;4906324;29;20036;-63
2022/09/22 11:50:56;;;;;;;6.50;4.80;;;;;;;21.90;43.74;99342.22;4908260;29;20044;-66
2022/09/22 11:53:49;;;;;;;6.45;4.50;;;;;;;21.90;43.63;99331.44;4915711;29;20036;-65
2022/09/22 11:56:37;;;;;;;7.38;4.30;;;;;;;21.91;43.67;99330.41;4915498;29;20048;-63
2022/09/22 11:59:30;;;;;;;6.85;4.43;;;;;;;21.90;43.45;99323.34;4905432;29;20408;-63
2022/09/22 12:01:58;;;;;;;5.28;4.22;;;;;;;21.88;43.46;99322.72;4899298;29;20086;-64
2022/09/22 12:05:26;;;;;;;8.00;3.90;;;;;;;21.90;43.57;99324.16;4916589;29;20530;-64
2022/09/22 12:08:09;;;;;;;6.35;3.97;;;;;;;21.90;43.48;99313.41;4881768;29;20411;-64
2022/09/22 12:10:38;;;;;;;7.90;3.78;;;;;;;21.90;43.45;99312.59;4916613;29;20044;-65
2022/09/22 12:13:37;;;;;;;4.65;3.78;;;;;;;21.88;43.34;99301.16;4916481;29;20039;-65
2022/09/22 12:16:09;;;;;;;8.75;3.50;;;;;;;21.85;43.46;99304.25;4906632;29;20090;-65
2022/09/22 12:18:48;;;;;;;5.28;3.83;;;;;;;21.85;43.38;99307.78;4912464;29;20040;-64
2022/09/22 12:21:42;;;;;;;4.32;3.00;;;;;;;21.86;43.56;99317.50;4912245;29;20435;-64
2022/09/22 12:24:10;;;;;;;4.93;4.03;;;;;;;21.89;43.52;99321.69;4916097;29;20099;-65
2022/09/22 12:26:49;;;;;;;4.00;3.15;;;;;;;21.89;43.63;99319.81;4912750;29;20052;-65
2022/09/22 12:29:15;;;;;;;5.55;4.00;;;;;;;21.84;43.56;99316.88;4915764;29;20448;-64
2022/09/22 12:31:54;;;;;;;6.60;3.10;;;;;;;21.81;43.50;99306.53;4903318;29;20045;-65
2022/09/22 12:34:42;;;;;;;6.15;3.65;;;;;;;21.78;43.47;99306.91;4901872;29;20039;-64
2022/09/22 12:37:20;;;;;;;5.75;3.08;;;;;;;21.77;43.58;99302.56;4916016;29;20115;-64
2022/09/22 12:39:47;;;;;;;4.45;3.50;;;;;;;21.77;43.42;99302.56;4916101;29;20099;-65
2022/09/22 12:42:21;;;;;;;6.15;3.47;;;;;;;21.74;43.41;99300.25;4931990;29;20082;-65
2022/09/22 12:44:57;;;;;;;3.58;2.83;;;;;;;21.72;43.54;99292.41;4917965;29;20134;-64
2022/09/22 12:47:36;;;;;;;3.55;2.78;;;;;;;21.73;43.33;99285.13;4935252;29;20123;-65
2022/09/22 12:50:06;;;;;;;5.22;3.28;;;;;;;21.71;43.21;99292.59;4934443;29;20103;-64
2022/09/22 12:52:40;;;;;;;6.78;3.67;;;;;;;;;;4935347;29;20395;-65
2022/09/22 12:55:28;;;;;;;5.78;3.08;;;;;;;21.65;43.17;99283.44;4934172;29;20046;-66
2022/09/22 12:58:01;;;;;;;6.28;3.03;;;;;;;21.60;43.29;99289.44;4935136;29;20166;-64